createdAt,value
2019-03-30T00:03:13.849Z,0.89
2019-03-30T00:07:19.001Z,1.18
2019-03-30T00:11:22.336Z,1.17
2019-03-30T00:15:25.765Z,1.12
2019-03-30T00:19:34.715Z,1.09
2019-03-30T00:23:35.201Z,1.09
2019-03-30T00:27:38.470Z,1.22
2019-03-30T00:31:42.255Z,1.07
2019-03-30T00:35:45.551Z,0.92
2019-03-30T00:39:48.928Z,0.85
2019-03-30T00:43:52.205Z,0.78
2019-03-30T00:47:55.804Z,0.77
2019-03-30T00:51:59.051Z,0.71
2019-03-30T00:56:02.454Z,0.65
2019-03-30T01:00:06.593Z,0.51
2019-03-30T01:04:09.979Z,0.43
2019-03-30T01:08:13.285Z,0.30
2019-03-30T01:12:16.924Z,0.22
2019-03-30T01:16:20.349Z,0.15
2019-03-30T01:20:23.677Z,0.02
2019-03-30T01:24:26.955Z,0.05
2019-03-30T01:28:30.369Z,-0.02
2019-03-30T01:32:35.212Z,-0.10
2019-03-30T01:36:38.692Z,-0.05
2019-03-30T01:40:41.966Z,-0.06
2019-03-30T01:44:45.343Z,-0.17
2019-03-30T01:48:48.639Z,-0.24
2019-03-30T01:52:53.801Z,-0.19
2019-03-30T01:56:57.321Z,-0.26
2019-03-30T02:01:00.684Z,-0.13
2019-03-30T02:05:04.278Z,-0.04
2019-03-30T02:09:08.184Z,0.11
2019-03-30T02:13:11.568Z,0.22
2019-03-30T02:17:14.947Z,-0.01
2019-03-30T02:21:18.208Z,-0.13
2019-03-30T02:25:21.586Z,-0.30
2019-03-30T02:29:24.868Z,-0.42
2019-03-30T02:33:29.740Z,-0.47
2019-03-30T02:37:33.429Z,-0.31
2019-03-30T02:41:36.926Z,-0.21
2019-03-30T02:45:40.294Z,0.10
2019-03-30T02:49:43.587Z,0.21
2019-03-30T02:53:48.625Z,0.40
2019-03-30T02:57:52.021Z,0.38
2019-03-30T03:01:55.426Z,0.09
2019-03-30T03:05:58.962Z,-0.19
2019-03-30T03:10:04.699Z,-0.37
2019-03-30T03:14:08.073Z,-0.58
2019-03-30T03:18:11.369Z,-0.70
2019-03-30T03:22:14.751Z,-0.75
2019-03-30T03:26:18.049Z,-0.19
2019-03-30T03:30:21.608Z,0.20
2019-03-30T03:34:24.977Z,0.42
2019-03-30T03:38:28.513Z,0.15
2019-03-30T03:42:31.972Z,-0.07
2019-03-30T03:46:35.332Z,-0.11
2019-03-30T03:50:50.053Z,-0.21
2019-03-30T03:54:55.868Z,-0.20
2019-03-30T03:59:01.765Z,-0.02
2019-03-30T04:03:06.642Z,-0.22
2019-03-30T04:07:11.802Z,-0.37
2019-03-30T04:11:16.869Z,-0.49
2019-03-30T04:15:27.528Z,-0.60
2019-03-30T04:19:31.317Z,-0.65
2019-03-30T04:23:35.593Z,-0.72
2019-03-30T04:27:38.939Z,-0.72
2019-03-30T04:31:42.211Z,-0.65
2019-03-30T04:35:45.568Z,-0.65
2019-03-30T04:39:48.815Z,-0.53
2019-03-30T04:43:52.185Z,-0.27
2019-03-30T04:47:55.448Z,-0.08
2019-03-30T04:51:58.831Z,-0.12
2019-03-30T04:56:03.837Z,-0.01
2019-03-30T05:00:07.695Z,0.21
2019-03-30T05:04:10.951Z,0.38
2019-03-30T05:08:14.446Z,0.32
2019-03-30T05:12:17.725Z,0.50
2019-03-30T05:16:21.190Z,0.53
2019-03-30T05:20:24.460Z,0.81
2019-03-30T05:24:27.786Z,1.08
2019-03-30T05:28:31.082Z,1.38
2019-03-30T05:32:34.468Z,1.50
2019-03-30T05:36:37.743Z,1.76
2019-03-30T05:40:41.121Z,1.71
2019-03-30T05:44:44.393Z,1.73
2019-03-30T05:48:47.742Z,2.13
2019-03-30T05:52:51.146Z,2.44
2019-03-30T05:56:54.800Z,2.67
2019-03-30T06:00:58.364Z,2.89
2019-03-30T06:05:03.709Z,3.18
2019-03-30T06:09:07.997Z,3.45
2019-03-30T06:13:12.485Z,3.63
2019-03-30T06:17:15.961Z,3.98
2019-03-30T06:21:19.300Z,4.37
2019-03-30T06:25:22.866Z,4.83
2019-03-30T06:29:26.226Z,4.89
2019-03-30T06:33:29.501Z,4.89
2019-03-30T06:37:33.026Z,5.19
2019-03-30T06:41:37.386Z,5.38
2019-03-30T06:45:40.811Z,5.50
2019-03-30T06:49:44.087Z,5.50
2019-03-30T06:53:47.443Z,5.67
2019-03-30T06:57:51.043Z,5.78
2019-03-30T07:01:54.963Z,5.93
2019-03-30T07:05:58.971Z,6.10
2019-03-30T07:10:04.434Z,6.11
2019-03-30T07:14:07.839Z,6.20
2019-03-30T07:18:11.496Z,6.28
2019-03-30T07:22:14.762Z,6.31
2019-03-30T07:26:18.132Z,6.43
2019-03-30T07:30:21.418Z,6.52
2019-03-30T07:34:25.006Z,6.51
2019-03-30T07:38:28.659Z,6.55
2019-03-30T07:42:32.109Z,6.55
2019-03-30T07:46:35.493Z,6.70
2019-03-30T07:50:38.855Z,6.89
2019-03-30T07:54:42.115Z,6.94
2019-03-30T07:58:45.578Z,7.04
2019-03-30T08:02:48.916Z,7.03
2019-03-30T08:06:52.325Z,6.95
2019-03-30T08:10:55.610Z,7.09
2019-03-30T08:14:59.002Z,7.05
2019-03-30T08:19:02.285Z,7.11
2019-03-30T08:23:05.612Z,7.17
2019-03-30T08:27:08.893Z,7.19
2019-03-30T08:31:12.487Z,7.21
2019-03-30T08:35:16.112Z,7.24
2019-03-30T08:39:19.488Z,7.43
2019-03-30T08:43:22.765Z,7.53
2019-03-30T08:47:26.145Z,7.91
2019-03-30T08:51:29.478Z,7.91
2019-03-30T08:55:32.823Z,7.92
2019-03-30T08:59:36.315Z,7.89
2019-03-30T09:03:39.666Z,7.93
2019-03-30T09:07:42.935Z,7.84
2019-03-30T09:11:46.280Z,7.83
2019-03-30T09:15:49.553Z,7.83
2019-03-30T09:19:52.920Z,8.14
2019-03-30T09:24:08.964Z,8.10
2019-03-30T09:28:01.339Z,8.12
2019-03-30T09:32:14.430Z,8.29
2019-03-30T09:36:09.695Z,8.48
2019-03-30T09:40:13.621Z,8.75
2019-03-30T09:44:16.965Z,8.73
2019-03-30T09:48:21.298Z,8.89
2019-03-30T09:52:25.092Z,9.08
2019-03-30T09:56:28.610Z,9.06
2019-03-30T10:00:32.200Z,9.27
2019-03-30T10:04:35.470Z,9.43
2019-03-30T10:08:39.897Z,9.61
2019-03-30T10:12:43.186Z,9.35
2019-03-30T10:16:48.735Z,9.27
2019-03-30T10:20:52.287Z,9.34
2019-03-30T10:24:58.366Z,9.13
2019-03-30T10:55:36.150Z,9.18
2019-03-30T10:59:39.846Z,8.96
2019-03-30T11:03:44.939Z,9.12
2019-03-30T11:07:48.245Z,9.46
2019-03-30T11:11:51.643Z,9.58
2019-03-30T11:15:55.106Z,9.59
2019-03-30T11:19:58.489Z,9.48
2019-03-30T11:24:01.825Z,9.50
2019-03-30T11:28:05.324Z,9.40
2019-03-30T11:32:08.926Z,9.47
2019-03-30T11:36:12.574Z,9.63
2019-03-30T11:40:16.004Z,9.59
2019-03-30T11:44:19.392Z,9.75
2019-03-30T11:48:22.744Z,9.78
2019-03-30T11:52:26.118Z,9.40
2019-03-30T11:56:29.477Z,9.40
2019-03-30T12:00:32.897Z,9.34
2019-03-30T12:04:36.530Z,9.36
2019-03-30T12:08:40.224Z,9.38
2019-03-30T12:12:44.820Z,9.45
2019-03-30T12:16:48.209Z,9.72
2019-03-30T12:20:51.539Z,9.36
2019-03-30T12:24:54.932Z,9.46
2019-03-30T12:28:58.260Z,9.45
2019-03-30T12:33:01.887Z,9.62
2019-03-30T12:37:06.262Z,9.47
2019-03-30T12:41:12.797Z,9.47
2019-03-30T12:45:21.705Z,9.85
2019-03-30T12:49:26.612Z,9.70
2019-03-30T12:53:32.255Z,9.64
2019-03-30T12:57:37.311Z,9.96
2019-03-30T13:01:48.638Z,9.97
2019-03-30T13:05:53.449Z,9.95
2019-03-30T13:10:04.269Z,9.84
2019-03-30T13:14:07.870Z,9.75
2019-03-30T13:18:11.246Z,9.99
2019-03-30T13:22:14.680Z,9.91
2019-03-30T13:26:17.997Z,9.68
2019-03-30T13:30:23.484Z,9.57
2019-03-30T13:34:30.772Z,9.50
2019-03-30T13:38:54.948Z,9.39
2019-03-30T13:43:02.090Z,9.25
2019-03-30T13:47:05.407Z,9.23
2019-03-30T13:51:08.734Z,9.30
2019-03-30T13:55:12.337Z,9.35
2019-03-30T13:59:15.664Z,9.30
2019-03-30T14:03:20.674Z,9.14
2019-03-30T14:07:24.146Z,9.02
2019-03-30T14:11:27.488Z,8.98
2019-03-30T14:15:34.959Z,8.94
2019-03-30T14:19:38.341Z,8.96
2019-03-30T14:23:43.482Z,8.85
2019-03-30T14:27:46.815Z,8.79
2019-03-30T14:31:50.117Z,8.76
2019-03-30T14:35:53.645Z,8.71
2019-03-30T14:39:56.955Z,8.69
2019-03-30T14:44:01.841Z,8.63
2019-03-30T14:48:05.219Z,8.63
2019-03-30T14:52:08.546Z,8.57
2019-03-30T14:56:11.933Z,8.48
2019-03-30T15:00:15.862Z,8.32
2019-03-30T15:04:19.239Z,8.27
2019-03-30T15:08:22.756Z,8.11
2019-03-30T15:12:26.137Z,7.94
2019-03-30T15:16:29.561Z,7.91
2019-03-30T15:20:33.289Z,7.69
2019-03-30T15:24:36.635Z,7.56
2019-03-30T15:28:42.669Z,7.35
2019-03-30T15:32:45.188Z,7.23
2019-03-30T15:36:48.464Z,7.20
2019-03-30T15:40:55.459Z,7.18
2019-03-30T15:44:57.076Z,7.15
2019-03-30T15:49:00.679Z,7.18
2019-03-30T15:53:03.983Z,7.10
2019-03-30T15:57:13.892Z,7.08
2019-03-30T16:01:12.662Z,7.10
2019-03-30T16:05:16.821Z,7.08
2019-03-30T16:09:20.553Z,7.00
2019-03-30T16:13:23.932Z,6.78
2019-03-30T16:17:27.229Z,6.54
2019-03-30T16:21:30.595Z,6.32
2019-03-30T16:25:34.986Z,6.15
2019-03-30T16:29:38.353Z,5.99
2019-03-30T16:33:41.662Z,5.87
2019-03-30T16:37:45.005Z,5.84
2019-03-30T16:41:48.283Z,5.71
2019-03-30T16:45:52.123Z,5.55
2019-03-30T16:49:55.376Z,5.40
2019-03-30T16:53:58.917Z,5.22
2019-03-30T16:58:02.312Z,5.17
2019-03-30T17:02:05.885Z,5.02
2019-03-30T17:06:09.222Z,4.91
2019-03-30T17:10:13.355Z,4.77
2019-03-30T17:14:16.721Z,4.73
2019-03-30T17:18:20.251Z,4.83
2019-03-30T17:22:23.829Z,4.88
2019-03-30T17:26:27.184Z,4.85
2019-03-30T17:30:30.792Z,4.75
2019-03-30T17:34:34.424Z,4.68
2019-03-30T17:38:37.984Z,4.73
2019-03-30T17:42:41.342Z,4.79
2019-03-30T17:46:44.641Z,4.74
2019-03-30T17:50:49.103Z,4.72
2019-03-30T17:54:52.415Z,4.68
2019-03-30T17:58:55.759Z,4.58
2019-03-30T18:02:59.057Z,4.50
2019-03-30T18:07:02.730Z,4.45
2019-03-30T18:11:06.235Z,4.37
2019-03-30T18:15:11.119Z,4.31
2019-03-30T18:19:14.383Z,4.25
2019-03-30T18:23:18.739Z,4.28
2019-03-30T18:27:23.124Z,4.30
2019-03-30T18:31:26.444Z,4.24
2019-03-30T18:35:31.258Z,4.19
2019-03-30T18:39:34.927Z,4.13
2019-03-30T18:43:38.260Z,3.98
2019-03-30T18:47:41.598Z,4.02
2019-03-30T18:51:47.087Z,4.10
2019-03-30T18:55:50.405Z,3.99
2019-03-30T18:59:53.684Z,3.94
2019-03-30T19:03:57.179Z,3.99
2019-03-30T19:08:00.558Z,4.02
2019-03-30T19:12:05.807Z,3.99
2019-03-30T19:16:09.214Z,3.97
2019-03-30T19:20:12.824Z,3.89
2019-03-30T19:24:16.349Z,3.84
2019-03-30T19:28:19.756Z,3.83
2019-03-30T19:32:23.303Z,3.85
2019-03-30T19:36:27.676Z,3.85
2019-03-30T19:40:30.985Z,3.76
2019-03-30T19:44:34.320Z,3.70
2019-03-30T19:48:37.607Z,3.62
2019-03-30T19:52:41.159Z,3.57
2019-03-30T19:56:45.435Z,3.50
2019-03-30T20:00:48.754Z,3.42
2019-03-30T20:04:52.055Z,3.31
2019-03-30T20:08:55.546Z,3.22
2019-03-30T20:12:59.055Z,3.17
2019-03-30T20:17:02.465Z,3.12
2019-03-30T20:21:05.771Z,3.09
2019-03-30T20:25:10.031Z,3.05
2019-03-30T20:29:24.708Z,3.04
2019-03-30T20:33:18.410Z,2.99
2019-03-30T20:37:21.749Z,2.99
2019-03-30T20:41:25.061Z,2.99
2019-03-30T20:45:28.586Z,2.99
2019-03-30T20:49:32.129Z,2.96
2019-03-30T20:53:35.523Z,2.93
2019-03-30T20:57:39.205Z,2.90
2019-03-30T21:01:42.679Z,2.88
2019-03-30T21:05:46.072Z,2.84
2019-03-30T21:09:49.332Z,2.86
2019-03-30T21:13:56.722Z,2.84
2019-03-30T21:17:59.334Z,2.82
2019-03-30T21:22:02.723Z,2.79
2019-03-30T21:26:06.301Z,2.78
2019-03-30T21:30:10.814Z,2.75
2019-03-30T21:34:14.186Z,2.77
2019-03-30T21:38:17.827Z,2.73
2019-03-30T21:42:21.208Z,2.74
2019-03-30T21:46:24.615Z,2.81
2019-03-30T21:50:27.864Z,2.83
2019-03-30T21:54:31.214Z,2.82
2019-03-30T21:58:35.934Z,2.81
2019-03-30T22:02:39.270Z,2.83
2019-03-30T22:06:42.630Z,2.85
2019-03-30T22:10:46.007Z,2.80
2019-03-30T22:14:49.857Z,2.86
2019-03-30T22:18:53.202Z,2.85
2019-03-30T22:22:56.469Z,2.80
2019-03-30T22:26:59.810Z,2.77
2019-03-30T22:31:03.515Z,2.73
2019-03-30T22:35:07.378Z,2.74
2019-03-30T22:39:10.821Z,2.73
2019-03-30T22:43:14.214Z,2.71
2019-03-30T22:47:17.482Z,2.68
2019-03-30T22:51:20.910Z,2.69
2019-03-30T22:55:24.137Z,2.70
2019-03-30T22:59:27.479Z,2.69
2019-03-30T23:03:30.768Z,2.66
2019-03-30T23:07:34.118Z,2.67
2019-03-30T23:11:37.362Z,2.67
2019-03-30T23:15:40.941Z,2.67
2019-03-30T23:19:44.567Z,2.68
2019-03-30T23:23:48.086Z,2.72
2019-03-30T23:27:51.578Z,2.71
2019-03-30T23:31:55.074Z,2.74
2019-03-30T23:35:58.333Z,2.75
2019-03-30T23:40:01.764Z,2.77
2019-03-30T23:44:05.101Z,2.78
2019-03-30T23:48:10.650Z,2.77
2019-03-30T23:52:14.316Z,2.82
2019-03-30T23:56:24.871Z,2.77
